BAW292 EDDL-EHRD
Flight info
| Callsign | BAW292 |
|---|---|
| Flight time | N/A |
| Altitude | 18000 |
| Route | SONEB8T/23L SONEB |
| Aircraft | B738/M-SDE2E3FGHIRWXY/LB1 |
Departure
| Time | N/A |
|---|---|
| Airport | Düsseldorf Airport (EDDL) |
Arrival
| Time | 2026-05-05 12:39 |
|---|---|
| Airport | Rotterdam The Hague Airport (EHRD) |
| Time | Latitude | Longitude | Altitude | Speed | Heading |
|---|---|---|---|---|---|
| 2026-05-05 12:20 | 52.36512 | 5.39525 | 6760 ft | 261 kts | 261° |
| 2026-05-05 12:20 | 52.36210 | 5.36489 | 6725 ft | 260 kts | 261° |
| 2026-05-05 12:21 | 52.35919 | 5.33575 | 6699 ft | 259 kts | 261° |
| 2026-05-05 12:21 | 52.35630 | 5.30669 | 6664 ft | 259 kts | 261° |
| 2026-05-05 12:21 | 52.35340 | 5.27758 | 6628 ft | 260 kts | 261° |
| 2026-05-05 12:21 | 52.35048 | 5.24839 | 6561 ft | 259 kts | 261° |
| 2026-05-05 12:22 | 52.34763 | 5.21987 | 6555 ft | 258 kts | 261° |
| 2026-05-05 12:22 | 52.34467 | 5.19034 | 6524 ft | 262 kts | 261° |
| 2026-05-05 12:22 | 52.34186 | 5.16252 | 6501 ft | 263 kts | 261° |
| 2026-05-05 12:22 | 52.33888 | 5.13314 | 6458 ft | 262 kts | 261° |
| 2026-05-05 12:23 | 52.33521 | 5.10389 | 6413 ft | 261 kts | 249° |
| 2026-05-05 12:23 | 52.32500 | 5.07961 | 6395 ft | 259 kts | 223° |
| 2026-05-05 12:23 | 52.31125 | 5.06114 | 6367 ft | 259 kts | 218° |
| 2026-05-05 12:23 | 52.29685 | 5.04342 | 6344 ft | 260 kts | 217° |
| 2026-05-05 12:24 | 52.28238 | 5.02587 | 6294 ft | 261 kts | 217° |
| 2026-05-05 12:24 | 52.26804 | 5.00843 | 6181 ft | 264 kts | 217° |
| 2026-05-05 12:24 | 52.25290 | 4.98995 | 6039 ft | 265 kts | 217° |
| 2026-05-05 12:24 | 52.23814 | 4.97186 | 5859 ft | 265 kts | 217° |
| 2026-05-05 12:25 | 52.22354 | 4.95393 | 5716 ft | 260 kts | 217° |
| 2026-05-05 12:25 | 52.20944 | 4.93657 | 5584 ft | 257 kts | 217° |
| 2026-05-05 12:25 | 52.19524 | 4.91906 | 5477 ft | 258 kts | 217° |
| 2026-05-05 12:25 | 52.18088 | 4.90136 | 5346 ft | 259 kts | 217° |
| 2026-05-05 12:26 | 52.16679 | 4.88400 | 5224 ft | 259 kts | 217° |
| 2026-05-05 12:26 | 52.15218 | 4.86601 | 5096 ft | 259 kts | 217° |
| 2026-05-05 12:26 | 52.14288 | 4.85456 | 5021 ft | 259 kts | 217° |
| 2026-05-05 12:26 | 52.12392 | 4.83122 | 4853 ft | 259 kts | 217° |
| 2026-05-05 12:27 | 52.10931 | 4.81326 | 4738 ft | 258 kts | 217° |
| 2026-05-05 12:27 | 52.09983 | 4.80161 | 4701 ft | 256 kts | 217° |
| 2026-05-05 12:27 | 52.08570 | 4.78425 | 4649 ft | 253 kts | 217° |
| 2026-05-05 12:27 | 52.07185 | 4.76725 | 4591 ft | 251 kts | 217° |
| 2026-05-05 12:28 | 52.05801 | 4.75026 | 4535 ft | 250 kts | 217° |
| 2026-05-05 12:28 | 52.04406 | 4.73316 | 4495 ft | 251 kts | 217° |
| 2026-05-05 12:28 | 52.03003 | 4.71597 | 4455 ft | 255 kts | 217° |
| 2026-05-05 12:28 | 52.01564 | 4.69835 | 4407 ft | 257 kts | 217° |
| 2026-05-05 12:29 | 52.00240 | 4.68216 | 4346 ft | 257 kts | 217° |
| 2026-05-05 12:29 | 51.98730 | 4.66372 | 4311 ft | 257 kts | 217° |
| 2026-05-05 12:29 | 51.97331 | 4.64661 | 4250 ft | 257 kts | 217° |
| 2026-05-05 12:29 | 51.95899 | 4.62914 | 4193 ft | 256 kts | 217° |
| 2026-05-05 12:30 | 51.94474 | 4.61176 | 4147 ft | 256 kts | 217° |
| 2026-05-05 12:30 | 51.93058 | 4.59452 | 4102 ft | 255 kts | 217° |
| 2026-05-05 12:30 | 51.91627 | 4.57712 | 4049 ft | 256 kts | 217° |
| 2026-05-05 12:30 | 51.90207 | 4.55986 | 3980 ft | 251 kts | 217° |
| 2026-05-05 12:31 | 51.88994 | 4.54166 | 3924 ft | 241 kts | 229° |
| 2026-05-05 12:31 | 51.87902 | 4.51994 | 3868 ft | 237 kts | 232° |
| 2026-05-05 12:31 | 51.86885 | 4.49886 | 3813 ft | 238 kts | 232° |
| 2026-05-05 12:31 | 51.85863 | 4.47779 | 3779 ft | 238 kts | 232° |
| 2026-05-05 12:32 | 51.84833 | 4.45676 | 3757 ft | 239 kts | 232° |
| 2026-05-05 12:32 | 51.83780 | 4.43540 | 3761 ft | 247 kts | 231° |
| 2026-05-05 12:32 | 51.82690 | 4.41350 | 3727 ft | 253 kts | 231° |
| 2026-05-05 12:32 | 51.81588 | 4.39145 | 3653 ft | 251 kts | 231° |
| 2026-05-05 12:33 | 51.80494 | 4.36966 | 3524 ft | 245 kts | 231° |
| 2026-05-05 12:33 | 51.79447 | 4.34882 | 3516 ft | 235 kts | 231° |
| 2026-05-05 12:33 | 51.78419 | 4.32844 | 3446 ft | 233 kts | 231° |
| 2026-05-05 12:33 | 51.77405 | 4.30838 | 3374 ft | 230 kts | 231° |
| 2026-05-05 12:34 | 51.76653 | 4.28723 | 3258 ft | 227 kts | 257° |
| 2026-05-05 12:34 | 51.76717 | 4.26088 | 3159 ft | 230 kts | 290° |
| 2026-05-05 12:34 | 51.77623 | 4.24015 | 3098 ft | 229 kts | 323° |
| 2026-05-05 12:34 | 51.79060 | 4.22956 | 3095 ft | 229 kts | 346° |
| 2026-05-05 12:35 | 51.80619 | 4.22491 | 3088 ft | 228 kts | 351° |
| 2026-05-05 12:35 | 51.82195 | 4.22099 | 3087 ft | 229 kts | 351° |
| 2026-05-05 12:35 | 51.83773 | 4.21702 | 3096 ft | 230 kts | 350° |
| 2026-05-05 12:35 | 51.85326 | 4.21491 | 3082 ft | 226 kts | 8° |
| 2026-05-05 12:36 | 51.86715 | 4.22583 | 2927 ft | 225 kts | 43° |
| 2026-05-05 12:36 | 51.87750 | 4.24432 | 2671 ft | 213 kts | 50° |
| 2026-05-05 12:36 | 51.88631 | 4.26293 | 2380 ft | 203 kts | 55° |
| 2026-05-05 12:36 | 51.89375 | 4.28126 | 2120 ft | 194 kts | 57° |
| 2026-05-05 12:37 | 51.90088 | 4.29931 | 1866 ft | 187 kts | 57° |
| 2026-05-05 12:37 | 51.90777 | 4.31673 | 1646 ft | 183 kts | 57° |
| 2026-05-05 12:37 | 51.91473 | 4.33425 | 1395 ft | 186 kts | 57° |
| 2026-05-05 12:37 | 51.92147 | 4.35120 | 1155 ft | 178 kts | 57° |
| 2026-05-05 12:38 | 51.92788 | 4.36732 | 932 ft | 171 kts | 57° |
| 2026-05-05 12:38 | 51.93407 | 4.38290 | 697 ft | 162 kts | 57° |
| 2026-05-05 12:38 | 51.93999 | 4.39775 | 479 ft | 152 kts | 57° |
| 2026-05-05 12:38 | 51.94567 | 4.41203 | 293 ft | 146 kts | 57° |
| 2026-05-05 12:39 | 51.95081 | 4.42496 | 120 ft | 148 kts | 57° |
| 2026-05-05 12:39 | 51.95664 | 4.43962 | -6 ft | 145 kts | 57° |
| 2026-05-05 12:39 | 51.96134 | 4.45127 | -6 ft | 90 kts | 57° |
| 2026-05-05 12:39 | 51.96239 | 4.45585 | -7 ft | 4 kts | 139° |
| 2026-05-05 12:40 | 51.96237 | 4.45587 | -7 ft | 0 kts | 140° |
| 2026-05-05 12:40 | 51.96233 | 4.45592 | -7 ft | 2 kts | 140° |
| 2026-05-05 12:40 | 51.96215 | 4.45616 | -6 ft | 4 kts | 146° |
| 2026-05-05 12:40 | 51.96195 | 4.45630 | -6 ft | 0 kts | 163° |